createdAt,value
2022-09-15T00:00:06.718Z,78278.33
2022-09-15T00:00:16.385Z,78270.11
2022-09-15T00:00:26.456Z,78269.39
2022-09-15T00:00:36.411Z,78269.56
2022-09-15T00:00:46.434Z,78284.06
2022-09-15T00:00:56.475Z,78277.78
2022-09-15T00:01:06.972Z,78255.75
2022-09-15T00:01:16.538Z,78254.12
2022-09-15T00:01:26.454Z,78268.30
2022-09-15T00:01:36.543Z,78255.20
2022-09-15T00:01:46.581Z,78254.30
2022-09-15T00:01:56.503Z,78246.62
2022-09-15T00:02:06.555Z,78255.20
2022-09-15T00:02:16.581Z,78234.80
2022-09-15T00:02:26.600Z,78242.84
2022-09-15T00:02:36.638Z,78250.62
2022-09-15T00:02:46.544Z,78236.80
2022-09-15T00:02:56.555Z,78250.80
2022-09-15T00:03:06.557Z,78241.39
2022-09-15T00:03:16.448Z,78244.47
2022-09-15T00:03:26.472Z,78228.58
2022-09-15T00:03:36.492Z,78236.80
2022-09-15T00:03:46.386Z,78235.70
2022-09-15T00:03:56.413Z,78221.34
2022-09-15T00:04:06.461Z,78229.67
2022-09-15T00:04:16.490Z,78222.06
2022-09-15T00:04:26.403Z,78238.80
2022-09-15T00:04:36.444Z,78237.89
2022-09-15T00:04:46.486Z,78230.39
2022-09-15T00:04:56.388Z,78259.56
2022-09-15T00:05:06.399Z,78246.28
2022-09-15T00:05:16.386Z,78257.75
2022-09-15T00:05:26.503Z,78245.74
2022-09-15T00:05:36.428Z,78239.16
2022-09-15T00:05:46.426Z,78245.92
2022-09-15T00:05:56.432Z,78231.30
2022-09-15T00:06:06.422Z,78238.61
2022-09-15T00:06:16.426Z,78237.70
2022-09-15T00:06:26.487Z,78236.98
2022-09-15T00:06:36.401Z,78251.34
2022-09-15T00:06:46.384Z,78230.76
2022-09-15T00:06:56.429Z,78237.70
2022-09-15T00:07:06.481Z,78251.34
2022-09-15T00:07:16.415Z,78230.76
2022-09-15T00:08:00.054Z,79270.39
2022-09-15T00:08:00.283Z,78899.39
2022-09-15T00:08:00.534Z,78753.73
2022-09-15T00:08:00.693Z,78659.45
2022-09-15T00:08:06.433Z,78393.11
2022-09-15T00:08:16.426Z,78358.75
2022-09-15T00:08:26.402Z,78360.38
2022-09-15T00:08:40.645Z,78345.32
2022-09-15T00:08:46.419Z,78353.64
2022-09-15T00:08:56.442Z,78355.09
2022-09-15T00:09:06.452Z,78377.80
2022-09-15T00:09:16.469Z,78369.49
2022-09-15T00:09:26.430Z,78378.34
2022-09-15T00:09:36.419Z,78387.09
2022-09-15T00:09:46.498Z,78387.62
2022-09-15T00:09:56.436Z,78396.38
2022-09-15T00:10:06.404Z,78387.62
2022-09-15T00:10:16.437Z,78389.27
2022-09-15T00:10:26.410Z,78396.91
2022-09-15T00:10:36.483Z,78396.55
2022-09-15T00:10:46.414Z,78405.41
2022-09-15T00:10:56.381Z,78405.95
2022-09-15T00:11:06.439Z,78403.41
2022-09-15T00:11:16.406Z,78396.91
2022-09-15T00:11:26.446Z,78397.45
2022-09-15T00:11:36.435Z,78390.72
2022-09-15T00:11:46.478Z,78403.41
2022-09-15T00:11:56.399Z,78389.27
2022-09-15T00:12:06.390Z,78382.34
2022-09-15T00:12:16.436Z,78382.70
2022-09-15T00:12:26.460Z,78380.70
2022-09-15T00:12:36.488Z,78381.61
2022-09-15T00:12:46.394Z,78382.88
2022-09-15T00:12:57.045Z,78383.06
2022-09-15T00:13:06.424Z,78380.70
2022-09-15T00:13:16.385Z,78380.52
2022-09-15T00:13:26.402Z,78388.17
2022-09-15T00:13:36.493Z,78379.98
2022-09-15T00:13:46.469Z,78373.12
2022-09-15T00:13:56.391Z,78380.34
2022-09-15T00:14:06.406Z,78387.27
2022-09-15T00:14:16.496Z,78381.80
2022-09-15T00:14:26.409Z,78380.89
2022-09-15T00:14:36.420Z,78374.75
2022-09-15T00:14:46.449Z,78380.89
2022-09-15T00:14:56.494Z,78374.94
2022-09-15T00:15:22.207Z,79363.23
2022-09-15T00:15:22.501Z,78992.50
2022-09-15T00:15:26.398Z,78511.24
2022-09-15T00:15:36.403Z,78445.81
2022-09-15T00:16:17.927Z,79372.36
2022-09-15T00:16:18.339Z,78856.55
2022-09-15T00:16:18.616Z,78714.62
2022-09-15T00:16:18.835Z,78688.80
2022-09-15T00:16:26.541Z,78488.59
2022-09-15T00:16:38.207Z,78448.17
2022-09-15T00:16:57.391Z,79396.23
2022-09-15T00:16:57.654Z,79033.30
2022-09-15T00:17:06.520Z,78525.53
2022-09-15T00:17:16.414Z,78477.69
2022-09-15T00:17:26.461Z,78461.93
2022-09-15T00:17:36.439Z,78447.27
2022-09-15T00:17:46.381Z,78461.56
2022-09-15T00:17:56.448Z,78447.80
2022-09-15T00:18:06.461Z,78432.52
2022-09-15T00:18:16.470Z,78432.70
2022-09-15T00:18:26.491Z,78430.70
2022-09-15T00:18:44.851Z,79414.06
2022-09-15T00:18:46.988Z,78690.97
2022-09-15T00:18:56.387Z,78518.15
2022-09-15T00:19:06.501Z,78474.11
2022-09-15T00:19:16.535Z,78479.14
2022-09-15T00:19:26.409Z,78449.44
2022-09-15T00:19:38.509Z,78447.08
2022-09-15T00:19:46.407Z,78447.27
2022-09-15T00:19:56.407Z,78455.56
2022-09-15T00:20:06.404Z,78448.17
2022-09-15T00:20:54.406Z,79406.45
2022-09-15T00:20:54.642Z,79010.70
2022-09-15T00:20:55.042Z,78904.47
2022-09-15T00:20:55.184Z,78757.45
2022-09-15T00:20:56.443Z,78625.88
2022-09-15T00:21:06.387Z,78496.95
2022-09-15T00:21:17.408Z,78465.92
2022-09-15T00:21:26.446Z,78447.98
2022-09-15T00:21:36.451Z,78447.44
2022-09-15T00:21:46.396Z,78434.33
2022-09-15T00:21:56.386Z,78425.12
2022-09-15T00:22:06.478Z,78433.78
2022-09-15T00:22:28.320Z,79391.45
2022-09-15T00:22:28.772Z,78860.72
2022-09-15T00:22:36.443Z,78492.77
2022-09-15T00:22:46.461Z,78472.48
2022-09-15T00:22:56.411Z,78450.89
2022-09-15T00:23:06.486Z,78442.34
2022-09-15T00:23:16.382Z,78418.67
2022-09-15T00:23:26.439Z,78417.41
2022-09-15T00:23:36.458Z,78416.68
2022-09-15T00:23:46.468Z,78417.05
2022-09-15T00:23:56.467Z,78432.88
2022-09-15T00:24:06.412Z,78417.05
2022-09-15T00:24:16.507Z,78439.08
2022-09-15T00:24:26.394Z,78432.70
2022-09-15T00:25:08.838Z,79453.68
2022-09-15T00:25:09.030Z,79206.48
2022-09-15T00:25:09.205Z,79046.33
2022-09-15T00:25:09.381Z,78939.22
2022-09-15T00:25:16.405Z,78583.20
2022-09-15T00:25:26.454Z,78526.80
2022-09-15T00:25:36.404Z,78509.97
2022-09-15T00:25:46.519Z,78495.31
2022-09-15T00:25:56.481Z,78486.23
2022-09-15T00:26:06.495Z,78484.96
2022-09-15T00:26:16.430Z,78498.34
2022-09-15T00:26:26.984Z,78477.32
2022-09-15T00:26:36.446Z,78497.08
2022-09-15T00:26:46.481Z,78483.14
2022-09-15T00:26:56.407Z,78482.23
2022-09-15T00:27:06.450Z,78473.88
2022-09-15T00:27:16.435Z,78465.94
2022-09-15T00:27:27.685Z,78464.67
2022-09-15T00:27:36.445Z,78464.49
2022-09-15T00:27:46.411Z,78458.66
2022-09-15T00:27:56.490Z,78464.49
2022-09-15T00:28:06.449Z,78457.58
2022-09-15T00:28:16.395Z,78457.94
2022-09-15T00:28:26.385Z,78457.94
2022-09-15T00:28:51.190Z,79405.91
2022-09-15T00:28:51.678Z,78970.73
2022-09-15T00:28:56.382Z,78561.78
2022-09-15T00:29:06.456Z,78504.34
2022-09-15T00:29:17.675Z,78479.88
2022-09-15T00:29:26.457Z,78463.41
2022-09-15T00:29:36.496Z,78455.95
2022-09-15T00:29:46.474Z,78459.95
2022-09-15T00:29:56.470Z,78438.91
2022-09-15T00:30:06.462Z,78440.00
2022-09-15T00:30:16.457Z,78431.09
2022-09-15T00:30:26.486Z,78432.55
2022-09-15T00:30:36.433Z,78409.42
2022-09-15T00:30:46.471Z,78431.27
2022-09-15T00:30:56.483Z,78423.98
2022-09-15T00:31:06.607Z,78414.96
2022-09-15T00:31:16.595Z,78414.42
2022-09-15T00:31:26.470Z,78421.45
2022-09-15T00:31:36.460Z,78416.23
2022-09-15T00:31:46.460Z,78415.69
2022-09-15T00:31:56.405Z,78420.55
2022-09-15T00:32:06.459Z,78406.70
2022-09-15T00:32:20.342Z,78405.97
2022-09-15T00:32:26.415Z,78400.50
2022-09-15T00:32:36.421Z,78398.14
2022-09-15T00:32:46.484Z,78397.96
2022-09-15T00:32:56.427Z,78405.43
2022-09-15T00:33:06.471Z,78397.78
2022-09-15T00:33:16.448Z,78397.42
2022-09-15T00:33:26.467Z,78397.96
2022-09-15T00:33:36.397Z,78396.88
2022-09-15T00:33:46.410Z,78404.34
2022-09-15T00:33:56.434Z,78399.59
2022-09-15T00:34:06.388Z,78389.66
2022-09-15T00:34:16.504Z,78403.80
2022-09-15T00:34:26.475Z,78396.33
2022-09-15T00:34:36.485Z,78382.55
2022-09-15T00:35:04.056Z,79365.66
2022-09-15T00:35:04.261Z,79118.73
2022-09-15T00:35:06.466Z,78583.31
2022-09-15T00:35:16.443Z,78463.95
2022-09-15T00:35:26.449Z,78438.55
2022-09-15T00:35:36.463Z,78417.14
2022-09-15T00:35:46.446Z,78425.98
2022-09-15T00:35:56.458Z,78447.94
2022-09-15T00:36:06.447Z,78439.82
2022-09-15T00:36:16.426Z,78433.45
2022-09-15T00:36:26.460Z,78447.58
2022-09-15T00:36:36.431Z,78448.30
2022-09-15T00:36:46.518Z,78448.84
2022-09-15T00:36:56.455Z,78442.36
2022-09-15T00:37:06.438Z,78463.95
2022-09-15T00:37:16.434Z,78459.39
2022-09-15T00:37:26.446Z,78459.03
2022-09-15T00:37:36.455Z,78466.84
2022-09-15T00:37:46.399Z,78452.48
2022-09-15T00:37:56.469Z,78459.75
2022-09-15T00:38:06.417Z,78466.67
2022-09-15T00:38:16.426Z,78466.30
2022-09-15T00:38:30.245Z,78473.88
2022-09-15T00:38:36.404Z,78480.78
2022-09-15T00:38:46.450Z,78475.33
2022-09-15T00:38:56.390Z,78467.58
2022-09-15T00:39:06.438Z,78482.42
2022-09-15T00:39:16.423Z,78475.69
2022-09-15T00:39:26.454Z,78483.69
2022-09-15T00:39:36.394Z,78493.50
2022-09-15T00:39:46.512Z,78499.25
2022-09-15T00:39:56.659Z,78492.23
2022-09-15T00:40:06.524Z,78502.88
2022-09-15T00:40:30.953Z,79490.79
2022-09-15T00:40:32.382Z,79119.17
2022-09-15T00:40:36.481Z,78645.20
2022-09-15T00:40:46.503Z,78582.84
2022-09-15T00:40:56.496Z,78558.95
2022-09-15T00:41:17.689Z,79540.77
2022-09-15T00:41:17.893Z,79273.46
2022-09-15T00:41:26.393Z,78649.38
2022-09-15T00:41:36.441Z,78624.78
2022-09-15T00:41:46.384Z,78594.02
2022-09-15T00:41:56.460Z,78615.36
2022-09-15T00:42:06.414Z,78603.45
2022-09-15T00:42:16.470Z,78609.44
2022-09-15T00:42:29.092Z,78603.09
2022-09-15T00:42:51.255Z,79551.88
2022-09-15T00:42:51.435Z,79259.33
2022-09-15T00:42:56.395Z,78723.50
2022-09-15T00:43:06.449Z,78667.79
2022-09-15T00:43:16.533Z,78630.23
2022-09-15T00:43:26.411Z,78636.39
2022-09-15T00:43:36.428Z,78629.14
2022-09-15T00:43:46.403Z,78635.48
2022-09-15T00:43:56.474Z,78628.95
2022-09-15T00:44:06.506Z,78629.50
2022-09-15T00:44:16.540Z,78636.75
2022-09-15T00:44:26.472Z,78645.57
2022-09-15T00:44:36.505Z,78638.93
2022-09-15T00:44:46.450Z,78646.11
2022-09-15T00:44:56.461Z,78638.02
2022-09-15T00:45:06.954Z,78652.81
2022-09-15T00:45:16.531Z,78638.02
2022-09-15T00:45:27.774Z,78653.18
2022-09-15T00:45:36.474Z,78647.20
2022-09-15T00:45:46.506Z,78660.97
2022-09-15T00:45:56.509Z,78661.70
2022-09-15T00:46:06.484Z,78669.78
2022-09-15T00:46:16.556Z,78670.88
2022-09-15T00:46:26.381Z,78670.88
2022-09-15T00:47:19.299Z,79654.56
2022-09-15T00:47:19.545Z,78821.48
2022-09-15T00:47:20.302Z,78774.93
2022-09-15T00:47:20.443Z,78774.75
2022-09-15T00:47:20.600Z,78774.93
2022-09-15T00:47:26.495Z,78767.16
2022-09-15T00:47:36.486Z,78744.07
2022-09-15T00:47:46.459Z,78735.09
2022-09-15T00:47:56.456Z,78735.63
2022-09-15T00:48:06.466Z,78735.09
2022-09-15T00:48:16.482Z,78744.07
2022-09-15T00:48:26.400Z,78734.55
2022-09-15T00:48:36.446Z,78734.72
2022-09-15T00:48:46.408Z,78742.80
2022-09-15T00:48:56.395Z,78750.03
2022-09-15T00:49:06.461Z,78743.34
2022-09-15T00:49:26.682Z,79722.94
2022-09-15T00:49:26.859Z,79450.72
2022-09-15T00:49:40.363Z,78829.98
2022-09-15T00:49:46.475Z,78812.99
2022-09-15T00:49:59.185Z,78821.67
2022-09-15T00:50:06.433Z,78803.84
2022-09-15T00:50:16.477Z,78804.93
2022-09-15T00:50:26.504Z,78797.34
2022-09-15T00:50:36.921Z,78806.74
2022-09-15T00:50:46.424Z,78827.98
2022-09-15T00:50:56.437Z,78821.48
2022-09-15T00:51:06.455Z,78823.12
2022-09-15T00:51:16.413Z,78828.53
2022-09-15T00:51:26.412Z,78837.67
2022-09-15T00:51:36.453Z,78852.30
2022-09-15T00:51:46.503Z,78868.84
2022-09-15T00:51:56.419Z,78855.02
2022-09-15T00:52:06.480Z,78871.38
2022-09-15T00:52:16.461Z,78878.23
2022-09-15T00:52:26.924Z,78887.55
2022-09-15T00:52:36.420Z,78896.76
2022-09-15T00:52:46.438Z,78896.39
2022-09-15T00:52:56.391Z,78904.22
2022-09-15T00:53:06.394Z,78911.36
2022-09-15T00:53:16.456Z,78907.48
2022-09-15T00:53:26.421Z,78920.02
2022-09-15T00:53:51.354Z,79893.77
2022-09-15T00:53:51.860Z,79429.89
2022-09-15T00:53:56.892Z,79051.30
2022-09-15T00:54:06.411Z,79009.84
2022-09-15T00:54:44.898Z,79933.80
2022-09-15T00:54:45.083Z,79670.89
2022-09-15T00:54:45.295Z,79517.09
2022-09-15T00:54:46.855Z,79271.56
2022-09-15T00:54:56.392Z,79052.56
2022-09-15T00:55:06.482Z,79036.25
2022-09-15T00:55:16.440Z,79043.27
2022-09-15T00:55:26.435Z,79027.80
2022-09-15T00:55:36.382Z,79027.98
2022-09-15T00:55:46.412Z,79026.34
2022-09-15T00:55:56.389Z,79025.26
2022-09-15T00:56:06.425Z,79036.98
2022-09-15T00:56:16.472Z,79042.91
2022-09-15T00:56:26.751Z,79035.71
2022-09-15T00:56:36.485Z,79049.48
2022-09-15T00:56:46.480Z,79043.08
2022-09-15T00:56:56.389Z,79051.84
2022-09-15T00:57:06.445Z,79045.26
2022-09-15T00:57:16.506Z,79067.48
2022-09-15T00:57:26.465Z,79061.92
2022-09-15T00:57:36.445Z,79067.84
2022-09-15T00:57:46.418Z,79060.30
2022-09-15T00:57:56.486Z,79083.30
2022-09-15T00:58:06.482Z,79090.12
2022-09-15T00:58:16.409Z,79098.87
2022-09-15T00:58:26.453Z,79116.31
2022-09-15T00:58:36.465Z,79115.77
2022-09-15T00:58:57.402Z,80076.44
2022-09-15T00:58:57.601Z,79813.80
2022-09-15T00:59:07.351Z,79195.75
2022-09-15T00:59:16.662Z,79172.67
2022-09-15T00:59:26.407Z,79177.85
2022-09-15T00:59:36.459Z,79165.03
2022-09-15T00:59:46.639Z,79178.58
2022-09-15T00:59:56.466Z,79173.58
2022-09-15T01:00:06.434Z,79180.94
2022-09-15T01:00:16.480Z,79172.86
2022-09-15T01:00:39.817Z,80155.77
2022-09-15T01:00:40.021Z,79898.84
2022-09-15T01:00:51.196Z,79291.60
2022-09-15T01:00:56.503Z,79267.67
2022-09-15T01:01:06.516Z,79244.20
2022-09-15T01:01:16.569Z,79259.13
2022-09-15T01:01:26.597Z,79252.52
2022-09-15T01:01:36.606Z,79253.06
2022-09-15T01:01:46.648Z,79246.20
2022-09-15T01:01:56.516Z,79273.56
2022-09-15T01:02:06.509Z,79275.91
2022-09-15T01:02:16.534Z,79289.61
2022-09-15T01:02:26.498Z,79283.79
2022-09-15T01:02:36.451Z,79307.17
2022-09-15T01:02:46.454Z,79307.53
2022-09-15T01:02:56.554Z,79328.91
2022-09-15T01:03:06.448Z,79330.91
2022-09-15T01:03:16.491Z,79324.84
2022-09-15T01:03:26.459Z,79352.27
2022-09-15T01:03:36.487Z,79341.79
2022-09-15T01:03:46.397Z,79355.17
2022-09-15T01:03:56.499Z,79362.78
2022-09-15T01:04:06.484Z,79369.56
2022-09-15T01:04:16.422Z,79372.28
2022-09-15T01:04:26.494Z,79386.67
2022-09-15T01:04:36.482Z,79380.27
2022-09-15T01:04:46.388Z,79389.03
2022-09-15T01:04:58.541Z,79396.17
2022-09-15T01:05:06.390Z,79383.16
2022-09-15T01:05:16.449Z,79405.23
2022-09-15T01:05:26.435Z,79412.73
2022-09-15T01:05:52.597Z,80392.77
2022-09-15T01:05:52.761Z,80120.61
2022-09-15T01:05:56.445Z,79572.50
2022-09-15T01:06:06.435Z,79494.19
2022-09-15T01:06:16.419Z,79470.72
2022-09-15T01:06:26.445Z,79477.77
2022-09-15T01:06:36.463Z,79477.23
2022-09-15T01:06:46.479Z,79470.72
2022-09-15T01:06:56.500Z,79472.53
2022-09-15T01:07:06.388Z,79485.62
2022-09-15T01:07:16.477Z,79494.91
2022-09-15T01:07:26.392Z,79474.34
2022-09-15T01:07:36.399Z,79503.42
2022-09-15T01:07:46.461Z,79501.61
2022-09-15T01:07:56.399Z,79496.19
2022-09-15T01:08:06.444Z,79502.52
2022-09-15T01:08:16.402Z,79511.45
2022-09-15T01:08:26.439Z,79512.53
2022-09-15T01:08:36.412Z,79520.92
2022-09-15T01:08:46.404Z,79523.81
2022-09-15T01:08:56.469Z,79536.17
2022-09-15T01:09:06.476Z,79544.73
2022-09-15T01:09:16.496Z,79544.55
2022-09-15T01:09:26.384Z,79552.14
2022-09-15T01:09:36.403Z,79553.23
2022-09-15T01:09:46.491Z,79568.17
2022-09-15T01:09:56.390Z,79569.62
2022-09-15T01:10:06.436Z,79577.39
2022-09-15T01:10:16.470Z,79592.70
2022-09-15T01:10:29.019Z,79593.60
2022-09-15T01:10:36.488Z,79594.69
2022-09-15T01:10:46.458Z,79600.83
2022-09-15T01:10:56.439Z,79603.00
2022-09-15T01:11:06.408Z,79610.65
2022-09-15T01:11:16.510Z,79626.23
2022-09-15T01:11:26.449Z,79635.88
2022-09-15T01:11:36.395Z,79629.13
2022-09-15T01:11:46.380Z,79649.10
2022-09-15T01:11:56.448Z,79634.61
2022-09-15T01:12:06.431Z,79649.28
2022-09-15T01:12:16.412Z,79650.73
2022-09-15T01:12:26.391Z,79645.51
2022-09-15T01:12:36.445Z,79668.36
2022-09-15T01:12:46.381Z,79668.55
2022-09-15T01:12:56.475Z,79675.76
2022-09-15T01:13:06.451Z,79683.58
2022-09-15T01:13:18.504Z,79690.66
2022-09-15T01:13:26.492Z,79684.12
2022-09-15T01:13:36.443Z,79690.66
2022-09-15T01:13:46.446Z,79707.31
2022-09-15T01:13:56.837Z,79707.86
2022-09-15T01:14:06.413Z,79714.22
2022-09-15T01:14:16.392Z,79714.22
2022-09-15T01:14:26.380Z,79707.50
2022-09-15T01:14:36.528Z,79715.48
2022-09-15T01:14:46.489Z,79729.66
2022-09-15T01:14:56.398Z,79717.12
2022-09-15T01:15:06.476Z,79729.48
2022-09-15T01:15:16.502Z,79739.28
2022-09-15T01:15:26.469Z,79748.11
2022-09-15T01:15:49.882Z,80719.02
2022-09-15T01:15:50.071Z,80457.16
2022-09-15T01:15:56.495Z,79870.91
2022-09-15T01:16:06.461Z,79810.34
2022-09-15T01:16:16.539Z,79810.70
2022-09-15T01:16:26.492Z,79803.69
2022-09-15T01:16:36.516Z,79807.62
2022-09-15T01:16:46.512Z,79795.17
2022-09-15T01:16:56.553Z,79808.53
2022-09-15T01:17:06.492Z,79809.61
2022-09-15T01:17:16.382Z,79809.44
2022-09-15T01:17:26.504Z,79818.13
2022-09-15T01:17:36.490Z,79810.34
2022-09-15T01:17:46.480Z,79832.57
2022-09-15T01:17:56.411Z,79834.02
2022-09-15T01:18:06.486Z,79833.48
2022-09-15T01:18:16.483Z,79842.72
2022-09-15T01:18:26.392Z,79855.52
2022-09-15T01:18:36.461Z,79857.70
2022-09-15T01:18:46.405Z,79863.49
2022-09-15T01:18:56.430Z,79842.90
2022-09-15T01:19:06.510Z,79858.59
2022-09-15T01:19:16.406Z,79865.66
2022-09-15T01:19:26.456Z,79864.76
2022-09-15T01:19:37.165Z,79865.12
2022-09-15T01:19:46.461Z,79860.77
2022-09-15T01:19:56.458Z,79858.42
2022-09-15T01:20:06.426Z,79859.14
2022-09-15T01:20:16.404Z,79865.12
2022-09-15T01:20:26.665Z,79858.96
2022-09-15T01:20:36.485Z,79843.08
2022-09-15T01:20:46.418Z,79836.73
2022-09-15T01:20:56.472Z,79835.47
2022-09-15T01:21:06.386Z,79857.70
2022-09-15T01:21:16.399Z,79829.73
2022-09-15T01:21:26.469Z,79835.29
2022-09-15T01:21:36.466Z,79836.20
2022-09-15T01:21:46.474Z,79842.54
2022-09-15T01:21:58.878Z,79857.88
2022-09-15T01:22:06.399Z,79843.45
2022-09-15T01:22:16.384Z,79843.98
2022-09-15T01:22:26.460Z,79858.06
2022-09-15T01:22:36.492Z,79843.45
2022-09-15T01:22:46.516Z,79864.03
2022-09-15T01:22:56.501Z,79864.03
2022-09-15T01:23:06.409Z,79836.38
2022-09-15T01:23:16.403Z,79843.80
2022-09-15T01:23:26.470Z,79857.33
2022-09-15T01:23:36.478Z,79858.96
2022-09-15T01:23:46.407Z,79867.48
2022-09-15T01:23:56.522Z,79859.14
2022-09-15T01:24:06.474Z,79858.96
2022-09-15T01:24:16.480Z,79858.23
2022-09-15T01:24:26.444Z,79872.91
2022-09-15T01:24:36.392Z,79867.30
2022-09-15T01:24:47.149Z,79860.77
2022-09-15T01:24:56.442Z,79874.54
2022-09-15T01:25:06.474Z,79874.00
2022-09-15T01:25:16.503Z,79882.98
2022-09-15T01:25:26.425Z,79882.62
2022-09-15T01:25:36.401Z,79882.98
2022-09-15T01:25:46.437Z,79898.55
2022-09-15T01:25:56.382Z,79904.47
2022-09-15T01:26:06.467Z,79905.01
2022-09-15T01:26:16.460Z,79906.45
2022-09-15T01:26:26.444Z,79919.66
2022-09-15T01:26:36.513Z,79897.65
2022-09-15T01:26:46.455Z,79905.38
2022-09-15T01:26:56.455Z,79904.83
2022-09-15T01:27:24.071Z,79927.56
2022-09-15T01:27:42.231Z,80868.12
2022-09-15T01:27:42.499Z,80037.72
2022-09-15T01:27:43.202Z,80005.09
2022-09-15T01:27:46.475Z,79967.82
2022-09-15T01:27:56.392Z,79972.45
2022-09-15T01:28:06.430Z,79965.29
2022-09-15T01:28:16.458Z,79949.20
2022-09-15T01:28:26.398Z,79942.03
2022-09-15T01:28:36.412Z,79949.92
2022-09-15T01:28:46.444Z,79933.89
2022-09-15T01:28:56.487Z,79957.52
2022-09-15T01:29:06.399Z,79949.56
2022-09-15T01:29:16.453Z,79947.02
2022-09-15T01:29:26.517Z,79947.93
2022-09-15T01:29:36.488Z,79934.44
2022-09-15T01:29:46.408Z,79940.94
2022-09-15T01:29:56.484Z,79948.30
2022-09-15T01:30:06.414Z,79947.39
2022-09-15T01:30:16.433Z,79948.11
2022-09-15T01:30:26.490Z,79940.40
2022-09-15T01:30:36.420Z,79939.86
2022-09-15T01:30:46.510Z,79938.95
2022-09-15T01:30:56.489Z,79942.39
2022-09-15T01:31:06.402Z,79933.89
2022-09-15T01:31:16.573Z,79940.03
2022-09-15T01:31:26.548Z,79938.95
2022-09-15T01:31:36.569Z,79932.98
2022-09-15T01:31:46.499Z,79919.66
2022-09-15T01:31:56.440Z,79923.39
2022-09-15T01:32:06.544Z,79932.98
2022-09-15T01:32:16.408Z,79919.12
2022-09-15T01:32:26.421Z,79924.30
2022-09-15T01:32:36.383Z,79925.75
2022-09-15T01:32:46.440Z,79933.89
2022-09-15T01:32:56.433Z,79924.84
2022-09-15T01:33:21.507Z,80889.50
2022-09-15T01:33:21.794Z,80377.32
2022-09-15T01:33:26.405Z,80049.91
2022-09-15T01:33:36.496Z,79978.77
2022-09-15T01:33:46.395Z,79980.59
2022-09-15T01:33:56.379Z,79958.78
2022-09-15T01:34:06.471Z,79956.06
2022-09-15T01:34:16.456Z,79942.75
2022-09-15T01:34:26.417Z,79950.28
2022-09-15T01:34:36.442Z,79956.06
2022-09-15T01:35:01.872Z,80890.23
2022-09-15T01:35:02.049Z,80644.79
2022-09-15T01:35:06.479Z,80068.08
2022-09-15T01:35:16.477Z,80012.86
2022-09-15T01:35:26.496Z,79982.76
2022-09-15T01:35:36.381Z,79982.03
2022-09-15T01:35:46.403Z,79981.85
2022-09-15T01:35:56.435Z,79974.62
2022-09-15T01:36:06.413Z,79981.49
2022-09-15T01:36:16.383Z,79974.62
2022-09-15T01:36:26.516Z,79982.22
2022-09-15T01:36:36.466Z,79981.49
2022-09-15T01:37:00.596Z,80922.83
2022-09-15T01:37:00.779Z,80645.52
2022-09-15T01:37:06.569Z,80098.91
2022-09-15T01:37:27.077Z,80969.31
2022-09-15T01:37:27.274Z,80716.62
2022-09-15T01:37:36.483Z,80105.40
2022-09-15T01:37:46.452Z,80059.66
2022-09-15T01:37:56.440Z,80056.59
2022-09-15T01:38:06.415Z,80048.83
2022-09-15T01:38:16.410Z,80036.09
2022-09-15T01:38:26.473Z,80026.33
2022-09-15T01:38:36.493Z,80028.14
2022-09-15T01:38:46.421Z,80033.38
2022-09-15T01:38:56.396Z,80034.27
2022-09-15T01:39:06.464Z,80041.61
2022-09-15T01:39:26.841Z,81000.56
2022-09-15T01:39:27.035Z,80734.09
2022-09-15T01:39:36.636Z,80120.29
2022-09-15T01:39:46.494Z,80094.57
2022-09-15T01:39:56.447Z,80079.25
2022-09-15T01:40:06.571Z,80072.03
2022-09-15T01:40:16.521Z,80070.59
2022-09-15T01:40:27.890Z,80063.92
2022-09-15T01:40:36.396Z,80078.70
2022-09-15T01:40:46.410Z,80071.12
2022-09-15T01:41:13.370Z,81017.34
2022-09-15T01:41:13.567Z,80776.95
2022-09-15T01:41:17.141Z,80227.42
2022-09-15T01:41:27.520Z,80139.48
2022-09-15T01:41:36.651Z,80122.97
2022-09-15T01:41:46.447Z,80115.77
2022-09-15T01:42:30.097Z,81044.80
2022-09-15T01:42:30.305Z,80792.54
2022-09-15T01:42:30.493Z,80622.46
2022-09-15T01:42:30.667Z,80531.15
2022-09-15T01:42:36.407Z,80201.75
2022-09-15T01:43:04.069Z,81097.80
2022-09-15T01:43:04.279Z,80844.06
2022-09-15T01:43:06.429Z,80324.66
2022-09-15T01:43:16.486Z,80202.66
2022-09-15T01:43:26.478Z,80192.02
